createdAt,value
2018-12-09T00:00:55.310Z,0.00
2018-12-09T00:01:55.260Z,0.00
2018-12-09T00:02:55.211Z,0.00
2018-12-09T00:03:55.162Z,0.00
2018-12-09T00:04:55.113Z,0.00
2018-12-09T00:05:55.077Z,0.00
2018-12-09T00:06:55.006Z,0.00
2018-12-09T00:07:54.979Z,0.00
2018-12-09T00:08:54.918Z,0.00
2018-12-09T00:09:54.868Z,0.00
2018-12-09T00:10:54.824Z,0.00
2018-12-09T00:11:54.770Z,0.00
2018-12-09T00:12:54.712Z,0.00
2018-12-09T00:13:54.672Z,0.00
2018-12-09T00:14:54.614Z,0.00
2018-12-09T00:15:54.593Z,0.00
2018-12-09T00:16:54.538Z,0.00
2018-12-09T00:17:54.482Z,0.00
2018-12-09T00:18:54.432Z,0.00
2018-12-09T00:19:54.391Z,0.00
2018-12-09T00:20:54.343Z,0.00
2018-12-09T00:21:54.284Z,0.00
2018-12-09T00:22:54.234Z,0.00
2018-12-09T00:23:54.185Z,0.00
2018-12-09T00:24:54.132Z,0.00
2018-12-09T00:25:54.074Z,0.00
2018-12-09T00:26:54.038Z,0.00
2018-12-09T00:27:53.984Z,0.00
2018-12-09T00:28:53.937Z,0.00
2018-12-09T00:29:53.891Z,0.00
2018-12-09T00:30:53.856Z,0.00
2018-12-09T00:31:53.801Z,0.00
2018-12-09T00:32:53.739Z,0.00
2018-12-09T00:33:53.782Z,0.00
2018-12-09T00:34:53.632Z,0.00
2018-12-09T00:35:53.583Z,0.00
2018-12-09T00:36:53.542Z,0.00
2018-12-09T00:37:53.493Z,0.00
2018-12-09T00:38:53.446Z,0.00
2018-12-09T00:39:53.395Z,0.00
2018-12-09T00:40:53.346Z,0.00
2018-12-09T00:41:53.288Z,0.00
2018-12-09T00:42:53.252Z,0.00
2018-12-09T00:43:53.212Z,0.00
2018-12-09T00:44:53.163Z,0.00
2018-12-09T00:45:53.092Z,0.00
2018-12-09T00:46:53.053Z,0.00
2018-12-09T00:47:53.002Z,0.00
2018-12-09T00:48:52.957Z,0.00
2018-12-09T00:49:53.015Z,0.00
2018-12-09T00:50:52.847Z,0.00
2018-12-09T00:51:52.798Z,0.00
2018-12-09T00:52:52.769Z,0.00
2018-12-09T00:53:52.720Z,0.00
2018-12-09T00:54:52.662Z,0.00
2018-12-09T00:55:52.622Z,0.00
2018-12-09T00:56:52.552Z,0.00
2018-12-09T00:57:52.524Z,0.00
2018-12-09T00:58:52.467Z,0.00
2018-12-09T00:59:52.412Z,0.00
2018-12-09T01:00:52.369Z,0.00
2018-12-09T01:01:52.306Z,0.00
2018-12-09T01:02:52.278Z,0.00
2018-12-09T01:03:52.229Z,0.00
2018-12-09T01:04:52.167Z,0.00
2018-12-09T01:05:52.125Z,0.00
2018-12-09T01:06:52.074Z,0.00
2018-12-09T01:07:52.024Z,0.00
2018-12-09T01:08:51.970Z,0.00
2018-12-09T01:09:51.913Z,0.00
2018-12-09T01:10:51.885Z,0.00
2018-12-09T01:11:51.816Z,0.00
2018-12-09T01:12:51.779Z,0.00
2018-12-09T01:13:51.725Z,0.00
2018-12-09T01:14:51.668Z,0.00
2018-12-09T01:15:51.635Z,0.00
2018-12-09T01:16:51.590Z,0.00
2018-12-09T01:17:51.529Z,0.00
2018-12-09T01:18:51.482Z,0.00
2018-12-09T01:19:51.507Z,0.00
2018-12-09T01:20:51.386Z,0.00
2018-12-09T01:21:51.337Z,0.00
2018-12-09T01:22:51.275Z,0.00
2018-12-09T01:23:51.226Z,0.00
2018-12-09T01:24:51.217Z,0.00
2018-12-09T01:25:51.151Z,0.00
2018-12-09T01:26:51.099Z,0.00
2018-12-09T01:27:51.042Z,0.00
2018-12-09T01:28:50.981Z,0.00
2018-12-09T01:29:50.931Z,0.00
2018-12-09T01:30:50.883Z,0.00
2018-12-09T01:31:50.853Z,0.00
2018-12-09T01:32:50.800Z,0.00
2018-12-09T01:33:50.755Z,0.00
2018-12-09T01:34:50.693Z,0.00
2018-12-09T01:35:50.644Z,0.00
2018-12-09T01:36:50.608Z,0.00
2018-12-09T01:37:50.550Z,0.00
2018-12-09T01:38:50.510Z,0.00
2018-12-09T01:39:50.451Z,0.00
2018-12-09T01:40:50.410Z,0.00
2018-12-09T01:41:50.340Z,0.00
2018-12-09T01:42:50.299Z,0.00
2018-12-09T01:43:50.251Z,0.00
2018-12-09T01:44:51.677Z,0.00
2018-12-09T01:45:50.152Z,0.00
2018-12-09T01:46:50.095Z,0.00
2018-12-09T01:47:50.045Z,0.00
2018-12-09T01:48:50.003Z,0.00
2018-12-09T01:49:49.959Z,0.00
2018-12-09T01:50:49.897Z,0.00
2018-12-09T01:51:49.869Z,0.00
2018-12-09T01:52:49.807Z,0.00
2018-12-09T01:53:49.762Z,0.00
2018-12-09T01:54:49.700Z,0.00
2018-12-09T01:55:49.664Z,0.00
2018-12-09T01:56:49.625Z,0.00
2018-12-09T01:57:49.565Z,0.00
2018-12-09T01:58:49.517Z,0.00
2018-12-09T01:59:49.465Z,0.00
2018-12-09T02:00:49.417Z,0.00
2018-12-09T02:01:49.356Z,0.00
2018-12-09T02:02:49.327Z,0.00
2018-12-09T02:03:49.256Z,0.00
2018-12-09T02:04:49.228Z,0.00
2018-12-09T02:05:49.168Z,0.00
2018-12-09T02:06:49.118Z,0.00
2018-12-09T02:07:49.073Z,0.00
2018-12-09T02:08:49.023Z,0.00
2018-12-09T02:09:48.982Z,0.00
2018-12-09T02:10:48.922Z,0.00
2018-12-09T02:11:48.875Z,0.00
2018-12-09T02:12:48.813Z,0.00
2018-12-09T02:13:48.764Z,0.00
2018-12-09T02:14:48.714Z,0.00
2018-12-09T02:15:48.674Z,0.00
2018-12-09T02:16:48.629Z,0.00
2018-12-09T02:17:48.576Z,0.00
2018-12-09T02:18:48.525Z,0.00
2018-12-09T02:19:48.477Z,0.00
2018-12-09T02:20:48.431Z,0.00
2018-12-09T02:21:48.391Z,0.00
2018-12-09T02:22:48.322Z,0.00
2018-12-09T02:23:48.272Z,0.00
2018-12-09T02:24:48.235Z,0.00
2018-12-09T02:25:48.196Z,0.00
2018-12-09T02:26:48.133Z,0.00
2018-12-09T02:27:48.087Z,0.00
2018-12-09T02:28:48.047Z,0.00
2018-12-09T02:29:47.997Z,0.00
2018-12-09T02:30:47.948Z,0.00
2018-12-09T02:31:47.899Z,0.00
2018-12-09T02:32:47.850Z,0.00
2018-12-09T02:33:47.788Z,0.00
2018-12-09T02:34:47.732Z,0.00
2018-12-09T02:35:47.690Z,0.00
2018-12-09T02:36:47.634Z,0.00
2018-12-09T02:37:47.598Z,0.00
2018-12-09T02:38:47.552Z,0.00
2018-12-09T02:39:47.493Z,0.00
2018-12-09T02:40:47.452Z,0.00
2018-12-09T02:41:47.387Z,0.00
2018-12-09T02:42:47.350Z,0.00
2018-12-09T02:43:47.301Z,0.00
2018-12-09T02:44:47.260Z,0.00
2018-12-09T02:45:47.197Z,0.00
2018-12-09T02:46:47.157Z,0.00
2018-12-09T02:47:47.104Z,0.00
2018-12-09T02:48:47.064Z,0.00
2018-12-09T02:49:47.001Z,0.00
2018-12-09T02:50:46.958Z,0.00
2018-12-09T02:51:46.917Z,0.00
2018-12-09T02:52:46.854Z,0.00
2018-12-09T02:53:46.805Z,0.00
2018-12-09T02:54:46.755Z,0.00
2018-12-09T02:55:46.697Z,0.00
2018-12-09T02:56:46.663Z,0.00
2018-12-09T02:57:46.608Z,0.00
2018-12-09T02:58:46.550Z,0.00
2018-12-09T02:59:46.522Z,0.00
2018-12-09T03:00:46.451Z,0.00
2018-12-09T03:01:46.426Z,0.00
2018-12-09T03:02:46.361Z,0.00
2018-12-09T03:03:46.327Z,0.00
2018-12-09T03:04:46.262Z,0.00
2018-12-09T03:05:46.214Z,0.00
2018-12-09T03:06:46.156Z,0.00
2018-12-09T03:07:46.116Z,0.00
2018-12-09T03:08:46.065Z,0.00
2018-12-09T03:09:46.019Z,0.00
2018-12-09T03:10:45.979Z,0.00
2018-12-09T03:11:45.909Z,0.00
2018-12-09T03:12:45.870Z,0.00
2018-12-09T03:13:45.811Z,0.00
2018-12-09T03:14:45.776Z,0.00
2018-12-09T03:15:45.729Z,0.00
2018-12-09T03:16:45.676Z,0.00
2018-12-09T03:17:45.613Z,0.00
2018-12-09T03:18:45.577Z,0.00
2018-12-09T03:19:45.527Z,0.00
2018-12-09T03:20:45.487Z,0.00
2018-12-09T03:21:45.424Z,0.00
2018-12-09T03:22:45.369Z,0.00
2018-12-09T03:23:45.330Z,0.00
2018-12-09T03:24:45.285Z,0.00
2018-12-09T03:25:45.219Z,0.00
2018-12-09T03:26:45.182Z,0.00
2018-12-09T03:27:45.142Z,0.00
2018-12-09T03:28:45.080Z,0.00
2018-12-09T03:29:45.043Z,0.00
2018-12-09T03:30:44.982Z,0.00
2018-12-09T03:31:44.940Z,0.00
2018-12-09T03:32:44.882Z,0.00
2018-12-09T03:33:44.832Z,0.00
2018-12-09T03:34:44.787Z,0.00
2018-12-09T03:35:44.746Z,0.00
2018-12-09T03:36:44.689Z,0.00
2018-12-09T03:37:44.636Z,0.00
2018-12-09T03:38:44.580Z,0.00
2018-12-09T03:39:44.550Z,0.00
2018-12-09T03:40:44.487Z,0.00
2018-12-09T03:41:44.438Z,0.00
2018-12-09T03:42:44.401Z,0.00
2018-12-09T03:43:44.346Z,0.00
2018-12-09T03:44:44.303Z,0.00
2018-12-09T03:45:44.235Z,0.00
2018-12-09T03:46:44.184Z,0.00
2018-12-09T03:47:44.147Z,0.00
2018-12-09T03:48:44.086Z,0.00
2018-12-09T03:49:44.036Z,0.00
2018-12-09T03:50:43.998Z,0.00
2018-12-09T03:51:43.936Z,0.00
2018-12-09T03:52:43.895Z,0.00
2018-12-09T03:53:43.854Z,0.00
2018-12-09T03:54:43.797Z,0.00
2018-12-09T03:55:43.755Z,0.00
2018-12-09T03:56:43.710Z,0.00
2018-12-09T03:57:43.653Z,0.00
2018-12-09T03:58:43.595Z,0.00
2018-12-09T03:59:43.564Z,0.00
2018-12-09T04:00:43.507Z,0.00
2018-12-09T04:01:43.457Z,0.00
2018-12-09T04:02:43.394Z,0.00
2018-12-09T04:03:43.354Z,0.00
2018-12-09T04:04:43.317Z,0.00
2018-12-09T04:05:43.246Z,0.00
2018-12-09T04:06:43.218Z,0.00
2018-12-09T04:07:43.170Z,0.00
2018-12-09T04:08:43.098Z,0.00
2018-12-09T04:09:43.062Z,0.00
2018-12-09T04:10:43.022Z,0.00
2018-12-09T04:11:42.959Z,0.00
2018-12-09T04:12:42.922Z,0.00
2018-12-09T04:13:42.867Z,0.00
2018-12-09T04:14:42.802Z,0.00
2018-12-09T04:15:42.754Z,0.00
2018-12-09T04:16:42.703Z,0.00
2018-12-09T04:17:42.654Z,0.00
2018-12-09T04:18:42.635Z,0.00
2018-12-09T04:19:42.568Z,0.00
2018-12-09T04:20:42.523Z,0.00
2018-12-09T04:21:42.470Z,0.00
2018-12-09T04:22:42.407Z,0.00
2018-12-09T04:23:42.357Z,0.00
2018-12-09T04:24:42.330Z,0.00
2018-12-09T04:25:42.272Z,0.00
2018-12-09T04:26:42.223Z,0.00
2018-12-09T04:27:42.173Z,0.00
2018-12-09T04:28:42.127Z,0.00
2018-12-09T04:29:42.074Z,0.00
2018-12-09T04:30:42.011Z,0.00
2018-12-09T04:31:41.962Z,0.00
2018-12-09T04:32:41.926Z,0.00
2018-12-09T04:33:41.864Z,0.00
2018-12-09T04:34:41.827Z,0.00
2018-12-09T04:35:41.777Z,0.00
2018-12-09T04:36:41.724Z,0.00
2018-12-09T04:37:41.675Z,0.00
2018-12-09T04:38:41.624Z,0.00
2018-12-09T04:39:41.568Z,0.00
2018-12-09T04:40:41.527Z,0.00
2018-12-09T04:41:41.477Z,0.00
2018-12-09T04:42:41.427Z,0.00
2018-12-09T04:43:41.390Z,0.00
2018-12-09T04:44:41.323Z,0.00
2018-12-09T04:45:41.293Z,0.00
2018-12-09T04:46:41.243Z,0.00
2018-12-09T04:47:41.172Z,0.00
2018-12-09T04:48:41.136Z,0.00
2018-12-09T04:49:41.073Z,0.00
2018-12-09T04:50:41.037Z,0.00
2018-12-09T04:51:40.998Z,0.00
2018-12-09T04:52:40.925Z,0.00
2018-12-09T04:53:40.889Z,0.00
2018-12-09T04:54:40.840Z,0.00
2018-12-09T04:55:40.797Z,0.00
2018-12-09T04:56:40.728Z,0.00
2018-12-09T04:57:40.678Z,0.00
2018-12-09T04:58:40.639Z,0.00
2018-12-09T04:59:40.602Z,0.00
2018-12-09T05:00:40.529Z,0.00
2018-12-09T05:01:40.488Z,0.00
2018-12-09T05:02:40.443Z,0.00
2018-12-09T05:03:40.394Z,0.00
2018-12-09T05:04:40.340Z,0.00
2018-12-09T05:05:40.291Z,0.00
2018-12-09T05:06:40.253Z,0.00
2018-12-09T05:07:40.204Z,0.00
2018-12-09T05:08:40.144Z,0.00
2018-12-09T05:09:40.092Z,0.00
2018-12-09T05:10:40.055Z,0.00
2018-12-09T05:11:39.984Z,0.00
2018-12-09T05:12:39.942Z,0.00
2018-12-09T05:13:39.897Z,0.00
2018-12-09T05:14:39.840Z,0.00
2018-12-09T05:15:39.807Z,0.00
2018-12-09T05:16:39.745Z,0.00
2018-12-09T05:17:39.699Z,0.00
2018-12-09T05:18:39.650Z,0.00
2018-12-09T05:19:39.609Z,0.00
2018-12-09T05:20:39.546Z,0.00
2018-12-09T05:21:39.489Z,0.00
2018-12-09T05:22:39.438Z,0.00
2018-12-09T05:23:39.401Z,0.00
2018-12-09T05:24:39.360Z,0.00
2018-12-09T05:25:39.311Z,0.00
2018-12-09T05:26:39.261Z,0.00
2018-12-09T05:27:39.233Z,0.00
2018-12-09T05:28:39.149Z,0.00
2018-12-09T05:29:39.092Z,0.00
2018-12-09T05:30:39.060Z,0.00
2018-12-09T05:31:39.013Z,0.00
2018-12-09T05:32:38.958Z,0.00
2018-12-09T05:33:38.905Z,0.00
2018-12-09T05:34:38.864Z,0.00
2018-12-09T05:35:38.802Z,0.00
2018-12-09T05:36:38.753Z,0.00
2018-12-09T05:37:38.707Z,0.00
2018-12-09T05:38:38.665Z,0.00
2018-12-09T05:39:38.595Z,0.00
2018-12-09T05:40:38.545Z,0.00
2018-12-09T05:41:38.508Z,0.00
2018-12-09T05:42:38.454Z,0.00
2018-12-09T05:43:38.397Z,0.00
2018-12-09T05:44:38.347Z,0.00
2018-12-09T05:45:38.310Z,0.00
2018-12-09T05:46:38.269Z,0.00
2018-12-09T05:47:38.206Z,0.00
2018-12-09T05:48:38.170Z,0.00
2018-12-09T05:49:38.100Z,0.00
2018-12-09T05:50:38.049Z,0.00
2018-12-09T05:51:38.000Z,0.00
2018-12-09T05:52:37.959Z,0.00
2018-12-09T05:53:37.903Z,0.00
2018-12-09T05:54:37.859Z,0.00
2018-12-09T05:55:37.810Z,0.00
2018-12-09T05:56:37.771Z,0.00
2018-12-09T05:57:37.702Z,0.00
2018-12-09T05:58:37.661Z,0.00
2018-12-09T05:59:37.624Z,0.00
2018-12-09T06:00:37.653Z,0.00
2018-12-09T06:01:37.504Z,0.00
2018-12-09T06:02:37.467Z,0.00
2018-12-09T06:03:37.417Z,0.00
2018-12-09T06:04:37.378Z,0.00
2018-12-09T06:05:37.318Z,0.00
2018-12-09T06:06:37.258Z,0.00
2018-12-09T06:07:37.217Z,0.00
2018-12-09T06:08:37.178Z,0.00
2018-12-09T06:09:37.120Z,0.00
2018-12-09T06:10:37.070Z,0.00
2018-12-09T06:11:37.029Z,0.00
2018-12-09T06:12:36.982Z,0.00
2018-12-09T06:13:36.917Z,0.00
2018-12-09T06:14:36.872Z,0.00
2018-12-09T06:15:36.818Z,0.00
2018-12-09T06:16:36.759Z,0.00
2018-12-09T06:17:36.710Z,0.00
2018-12-09T06:18:36.669Z,0.00
2018-12-09T06:19:36.625Z,0.00
2018-12-09T06:20:36.573Z,0.00
2018-12-09T06:21:36.511Z,0.00
2018-12-09T06:22:36.483Z,0.00
2018-12-09T06:23:36.412Z,0.00
2018-12-09T06:24:36.375Z,0.00
2018-12-09T06:25:36.331Z,0.00
2018-12-09T06:26:36.263Z,0.00
2018-12-09T06:27:36.213Z,0.00
2018-12-09T06:28:36.177Z,0.00
2018-12-09T06:29:36.127Z,0.00
2018-12-09T06:30:36.080Z,0.00
2018-12-09T06:31:36.015Z,0.00
2018-12-09T06:32:35.987Z,0.00
2018-12-09T06:33:35.929Z,0.00
2018-12-09T06:34:35.870Z,0.00
2018-12-09T06:35:35.831Z,0.00
2018-12-09T06:36:35.768Z,0.00
2018-12-09T06:37:35.727Z,0.00
2018-12-09T06:38:35.690Z,0.00
2018-12-09T06:39:35.621Z,0.00
2018-12-09T06:40:35.578Z,0.00
2018-12-09T06:41:35.533Z,0.00
2018-12-09T06:42:35.483Z,0.00
2018-12-09T06:43:35.420Z,0.00
2018-12-09T06:44:35.392Z,0.00
2018-12-09T06:45:35.343Z,0.00
2018-12-09T06:46:35.296Z,0.00
2018-12-09T06:47:35.222Z,0.00
2018-12-09T06:48:35.172Z,0.00
2018-12-09T06:49:35.136Z,0.00
2018-12-09T06:50:35.082Z,0.00
2018-12-09T06:51:35.036Z,0.00
2018-12-09T06:52:34.995Z,0.00
2018-12-09T06:53:34.937Z,0.00
2018-12-09T06:54:34.895Z,0.00
2018-12-09T06:55:34.846Z,0.00
2018-12-09T06:56:34.788Z,0.00
2018-12-09T06:57:34.747Z,0.00
2018-12-09T06:58:34.685Z,0.00
2018-12-09T06:59:34.635Z,0.00
2018-12-09T07:00:34.590Z,0.00
2018-12-09T07:01:34.536Z,0.00
2018-12-09T07:02:34.499Z,0.00
2018-12-09T07:03:34.436Z,0.00
2018-12-09T07:04:34.387Z,0.00
2018-12-09T07:05:34.330Z,0.00
2018-12-09T07:06:34.292Z,0.00
2018-12-09T07:07:34.238Z,0.00
2018-12-09T07:08:34.188Z,0.00
2018-12-09T07:09:34.151Z,0.00
2018-12-09T07:10:34.091Z,0.00
2018-12-09T07:11:34.034Z,0.00
2018-12-09T07:12:33.981Z,0.00
2018-12-09T07:13:33.953Z,0.00
2018-12-09T07:14:33.895Z,0.00
2018-12-09T07:15:33.845Z,0.00
2018-12-09T07:16:33.795Z,0.00
2018-12-09T07:17:33.743Z,0.00
2018-12-09T07:18:33.705Z,0.00
2018-12-09T07:19:33.642Z,0.00
2018-12-09T07:20:33.605Z,0.00
2018-12-09T07:21:33.555Z,0.00
2018-12-09T07:22:33.497Z,0.00
2018-12-09T07:23:33.443Z,0.00
2018-12-09T07:24:33.386Z,0.00
2018-12-09T07:25:33.346Z,0.00
2018-12-09T07:26:33.286Z,0.00
2018-12-09T07:27:33.236Z,0.00
2018-12-09T07:28:33.209Z,0.00
2018-12-09T07:29:33.151Z,0.00
2018-12-09T07:30:33.101Z,0.00
2018-12-09T07:31:33.052Z,0.00
2018-12-09T07:32:32.997Z,0.00
2018-12-09T07:33:32.952Z,0.00
2018-12-09T07:34:32.910Z,0.00
2018-12-09T07:35:32.852Z,0.00
2018-12-09T07:36:32.798Z,0.00
2018-12-09T07:37:32.740Z,0.00
2018-12-09T07:38:32.705Z,0.00
2018-12-09T07:39:32.654Z,0.00
2018-12-09T07:40:32.593Z,0.00
2018-12-09T07:41:32.563Z,0.00
2018-12-09T07:42:32.492Z,0.00
2018-12-09T07:43:32.451Z,0.00
2018-12-09T07:44:32.401Z,0.00
2018-12-09T07:45:32.365Z,0.00
2018-12-09T07:46:32.303Z,0.00
2018-12-09T07:47:32.257Z,0.00
2018-12-09T07:48:32.216Z,0.00
2018-12-09T07:49:32.145Z,0.00
2018-12-09T07:50:32.108Z,0.00
2018-12-09T07:51:32.046Z,0.00
2018-12-09T07:52:32.005Z,0.00
2018-12-09T07:53:31.960Z,0.00
2018-12-09T07:54:31.918Z,0.00
2018-12-09T07:55:31.848Z,0.00
2018-12-09T07:56:31.806Z,0.00
2018-12-09T07:57:31.756Z,0.00
2018-12-09T07:58:31.699Z,0.00
2018-12-09T07:59:31.649Z,0.00
2018-12-09T08:00:31.620Z,0.00
2018-12-09T08:01:31.570Z,0.00
2018-12-09T08:02:31.508Z,0.00
2018-12-09T08:03:31.451Z,0.00
2018-12-09T08:04:31.403Z,0.00
2018-12-09T08:05:31.364Z,0.00
2018-12-09T08:06:31.301Z,0.00
2018-12-09T08:07:31.272Z,0.00
2018-12-09T08:08:31.216Z,0.00
2018-12-09T08:09:31.160Z,0.00
2018-12-09T08:10:31.115Z,0.00
2018-12-09T08:11:31.073Z,0.00
2018-12-09T08:12:31.023Z,0.00
2018-12-09T08:13:30.965Z,5.63
2018-12-09T08:14:30.925Z,5.63
2018-12-09T08:15:30.863Z,5.63
2018-12-09T08:16:30.819Z,5.63
2018-12-09T08:17:30.775Z,5.63
2018-12-09T08:18:30.725Z,5.63
2018-12-09T08:19:30.654Z,5.63
2018-12-09T08:20:30.615Z,11.25
2018-12-09T08:21:30.554Z,11.25
2018-12-09T08:22:30.504Z,11.25
2018-12-09T08:23:30.475Z,11.25
2018-12-09T08:24:30.404Z,11.25
2018-12-09T08:25:30.355Z,11.25
2018-12-09T08:26:30.319Z,16.88
2018-12-09T08:27:30.255Z,16.88
2018-12-09T08:28:30.218Z,16.88
2018-12-09T08:29:30.155Z,22.50
2018-12-09T08:30:30.120Z,22.50
2018-12-09T08:31:30.076Z,28.13
2018-12-09T08:32:30.028Z,28.13
2018-12-09T08:33:29.985Z,73.13
2018-12-09T08:34:29.927Z,101.25
2018-12-09T08:35:29.880Z,67.50
2018-12-09T08:36:29.819Z,33.75
2018-12-09T08:37:29.764Z,33.75
2018-12-09T08:38:29.707Z,33.75
2018-12-09T08:39:29.669Z,73.13
2018-12-09T08:40:29.627Z,106.88
2018-12-09T08:41:29.565Z,84.38
2018-12-09T08:42:29.516Z,56.25
2018-12-09T08:43:29.470Z,73.13
2018-12-09T08:44:29.430Z,174.38
2018-12-09T08:45:29.367Z,202.50
2018-12-09T08:46:29.310Z,196.88
2018-12-09T08:47:29.260Z,151.88
2018-12-09T08:48:29.210Z,90.00
2018-12-09T08:49:29.177Z,67.50
2018-12-09T08:50:29.126Z,61.88
2018-12-09T08:51:29.072Z,78.75
2018-12-09T08:52:29.023Z,73.13
2018-12-09T08:53:28.987Z,73.13
2018-12-09T08:54:28.926Z,61.88
2018-12-09T08:55:28.885Z,61.88
2018-12-09T08:56:28.840Z,61.88
2018-12-09T08:57:28.779Z,135.00
2018-12-09T08:58:28.732Z,213.75
2018-12-09T08:59:28.682Z,376.88
2018-12-09T09:00:28.646Z,241.88
2018-12-09T09:01:28.582Z,292.50
2018-12-09T09:02:28.528Z,258.75
2018-12-09T09:03:28.479Z,151.88
2018-12-09T09:04:28.454Z,157.50
2018-12-09T09:05:28.404Z,286.88
2018-12-09T09:06:28.347Z,264.38
2018-12-09T09:07:28.295Z,253.13
2018-12-09T09:08:28.260Z,140.63
2018-12-09T09:09:28.193Z,123.75
2018-12-09T09:10:28.151Z,118.13
2018-12-09T09:11:28.103Z,101.25
2018-12-09T09:12:28.055Z,180.00
2018-12-09T09:13:28.011Z,253.13
2018-12-09T09:14:27.972Z,213.75
2018-12-09T09:15:27.903Z,140.63
2018-12-09T09:16:27.856Z,106.88
2018-12-09T09:17:27.810Z,106.88
2018-12-09T09:18:27.782Z,135.00
2018-12-09T09:19:27.712Z,236.25
2018-12-09T09:20:27.665Z,466.88
2018-12-09T09:21:27.638Z,669.38
2018-12-09T09:22:27.577Z,708.75
2018-12-09T09:23:27.522Z,731.25
2018-12-09T09:24:27.478Z,725.63
2018-12-09T09:25:27.436Z,720.00
2018-12-09T09:26:27.389Z,736.88
2018-12-09T09:27:27.349Z,793.13
2018-12-09T09:28:27.309Z,703.13
2018-12-09T09:29:27.243Z,793.13
2018-12-09T09:30:27.217Z,781.88
2018-12-09T09:31:27.150Z,776.25
2018-12-09T09:32:27.122Z,798.75
2018-12-09T09:33:27.080Z,781.88
2018-12-09T09:34:27.035Z,652.50
2018-12-09T09:35:26.990Z,798.75
2018-12-09T09:36:26.940Z,826.88
2018-12-09T09:37:26.892Z,866.25
2018-12-09T09:38:26.843Z,838.13
2018-12-09T09:39:26.791Z,888.75
2018-12-09T09:40:26.773Z,151.88
2018-12-09T09:41:26.711Z,528.75
2018-12-09T09:42:26.667Z,911.25
2018-12-09T09:43:26.629Z,933.75
2018-12-09T09:44:26.572Z,956.25
2018-12-09T09:45:26.528Z,973.13
2018-12-09T09:46:26.499Z,961.88
2018-12-09T09:47:26.463Z,995.63
2018-12-09T09:48:26.399Z,990.00
2018-12-09T09:49:26.357Z,607.50
2018-12-09T09:50:26.314Z,928.13
2018-12-09T09:51:26.279Z,961.88
2018-12-09T09:52:26.236Z,1023.75
2018-12-09T09:53:26.195Z,1006.88
2018-12-09T09:54:26.144Z,849.38
2018-12-09T09:55:26.124Z,376.88
2018-12-09T09:56:26.069Z,1029.38
2018-12-09T09:57:26.033Z,1063.13
2018-12-09T09:58:25.997Z,973.13
2018-12-09T09:59:25.957Z,990.00
2018-12-09T10:00:25.895Z,1012.50
2018-12-09T10:01:25.816Z,810.00
2018-12-09T10:02:25.836Z,978.75
2018-12-09T10:03:26.269Z,331.88
2018-12-09T10:04:25.730Z,967.50
2018-12-09T10:05:25.711Z,933.75
2018-12-09T10:06:25.657Z,894.38
2018-12-09T10:07:25.616Z,877.50
2018-12-09T10:08:25.575Z,855.00
2018-12-09T10:09:25.548Z,821.25
2018-12-09T10:10:25.507Z,793.13
2018-12-09T10:11:25.457Z,742.50
2018-12-09T10:12:25.413Z,652.50
2018-12-09T10:13:25.391Z,613.13
2018-12-09T10:14:25.336Z,585.00
2018-12-09T10:15:25.283Z,562.50
2018-12-09T10:16:25.257Z,540.00
2018-12-09T10:17:25.211Z,523.13
2018-12-09T10:18:25.165Z,517.50
2018-12-09T10:19:25.145Z,500.63
2018-12-09T10:20:25.097Z,483.75
2018-12-09T10:21:25.044Z,444.38
2018-12-09T10:22:25.013Z,382.50
2018-12-09T10:23:24.973Z,354.38
2018-12-09T10:24:24.945Z,331.88
2018-12-09T10:25:24.884Z,309.38
2018-12-09T10:26:24.856Z,241.88
2018-12-09T10:27:24.816Z,225.00
2018-12-09T10:28:24.777Z,196.88
2018-12-09T10:29:24.741Z,191.25
2018-12-09T10:30:24.680Z,191.25
2018-12-09T10:31:24.658Z,185.63
2018-12-09T10:32:24.596Z,174.38
2018-12-09T10:33:24.552Z,180.00
2018-12-09T10:34:24.524Z,185.63
2018-12-09T10:35:24.480Z,174.38
2018-12-09T10:36:24.423Z,168.75
2018-12-09T10:37:24.393Z,163.13
2018-12-09T10:38:24.360Z,163.13
2018-12-09T10:39:24.293Z,163.13
2018-12-09T10:40:24.260Z,157.50
2018-12-09T10:41:24.205Z,157.50
2018-12-09T10:42:24.182Z,151.88
2018-12-09T10:43:24.138Z,151.88
2018-12-09T10:44:24.081Z,146.25
2018-12-09T10:45:24.049Z,146.25
2018-12-09T10:46:23.992Z,140.63
2018-12-09T10:47:23.939Z,140.63
2018-12-09T10:48:23.903Z,140.63
2018-12-09T10:49:23.861Z,140.63
2018-12-09T10:50:23.826Z,140.63
2018-12-09T10:51:23.781Z,140.63
2018-12-09T10:52:23.714Z,140.63
2018-12-09T10:53:23.682Z,140.63
2018-12-09T10:54:23.633Z,140.63
2018-12-09T10:55:23.590Z,135.00
2018-12-09T10:56:23.546Z,135.00
2018-12-09T10:57:23.501Z,135.00
2018-12-09T10:58:23.452Z,135.00
2018-12-09T10:59:23.406Z,135.00
2018-12-09T11:00:23.353Z,129.38
2018-12-09T11:01:23.327Z,129.38
2018-12-09T11:02:23.282Z,129.38
2018-12-09T11:03:23.289Z,129.38
2018-12-09T11:04:23.169Z,129.38
2018-12-09T11:05:23.125Z,129.38
2018-12-09T11:06:23.086Z,129.38
2018-12-09T11:07:23.052Z,129.38
2018-12-09T11:08:22.999Z,129.38
2018-12-09T11:09:22.940Z,129.38
2018-12-09T11:10:22.907Z,129.38
2018-12-09T11:11:22.848Z,129.38
2018-12-09T11:12:22.817Z,129.38
2018-12-09T11:13:22.765Z,123.75
2018-12-09T11:14:22.730Z,123.75
2018-12-09T11:15:22.687Z,123.75
2018-12-09T11:16:22.631Z,123.75
2018-12-09T11:17:22.594Z,123.75
2018-12-09T11:18:22.526Z,123.75
2018-12-09T11:19:22.493Z,123.75
2018-12-09T11:20:22.435Z,123.75
2018-12-09T11:21:30.366Z,123.75
2018-12-09T11:22:22.364Z,123.75
2018-12-09T11:23:22.318Z,123.75
2018-12-09T11:24:22.264Z,123.75
2018-12-09T11:25:22.219Z,123.75
2018-12-09T11:26:22.186Z,123.75
2018-12-09T11:27:22.114Z,123.75
2018-12-09T11:28:22.079Z,123.75
2018-12-09T11:29:22.021Z,123.75
2018-12-09T11:30:21.988Z,123.75
2018-12-09T11:31:21.941Z,123.75
2018-12-09T11:32:21.896Z,123.75
2018-12-09T11:33:21.849Z,123.75
2018-12-09T11:34:21.792Z,123.75
2018-12-09T11:35:21.766Z,123.75
2018-12-09T11:36:21.711Z,123.75
2018-12-09T11:37:21.666Z,123.75
2018-12-09T11:38:21.616Z,123.75
2018-12-09T11:39:21.575Z,123.75
2018-12-09T11:40:21.514Z,118.13
2018-12-09T11:41:21.490Z,118.13
2018-12-09T11:42:21.443Z,118.13
2018-12-09T11:43:21.398Z,118.13
2018-12-09T11:44:21.343Z,118.13
2018-12-09T11:45:21.284Z,118.13
2018-12-09T11:46:21.251Z,118.13
2018-12-09T11:47:21.201Z,118.13
2018-12-09T11:48:21.147Z,118.13
2018-12-09T11:49:21.110Z,118.13
2018-12-09T11:50:21.062Z,118.13
2018-12-09T11:51:21.033Z,118.13
2018-12-09T11:52:20.980Z,118.13
2018-12-09T11:53:20.920Z,118.13
2018-12-09T11:54:20.883Z,118.13
2018-12-09T11:55:20.833Z,118.13
2018-12-09T11:56:20.779Z,118.13
2018-12-09T11:57:20.748Z,118.13
2018-12-09T11:58:20.700Z,118.13
2018-12-09T11:59:20.662Z,118.13
2018-12-09T12:00:20.616Z,118.13
2018-12-09T12:01:20.570Z,118.13
2018-12-09T12:02:20.512Z,118.13
2018-12-09T12:03:20.478Z,118.13
2018-12-09T12:04:20.412Z,118.13
2018-12-09T12:05:20.365Z,118.13
2018-12-09T12:06:20.327Z,118.13
2018-12-09T12:07:20.280Z,118.13
2018-12-09T12:08:20.239Z,118.13
2018-12-09T12:09:20.190Z,118.13
2018-12-09T12:10:20.143Z,118.13
2018-12-09T12:11:20.104Z,118.13
2018-12-09T12:12:21.476Z,118.13
2018-12-09T12:13:19.997Z,118.13
2018-12-09T12:14:19.960Z,118.13
2018-12-09T12:15:19.915Z,118.13
2018-12-09T12:16:19.860Z,118.13
2018-12-09T12:17:19.835Z,118.13
2018-12-09T12:18:19.769Z,118.13
2018-12-09T12:19:19.723Z,118.13
2018-12-09T12:20:19.685Z,118.13
2018-12-09T12:21:19.638Z,118.13
2018-12-09T12:22:19.584Z,118.13
2018-12-09T12:23:19.560Z,118.13
2018-12-09T12:24:20.870Z,118.13
2018-12-09T12:25:19.447Z,118.13
2018-12-09T12:26:19.414Z,118.13
2018-12-09T12:27:19.370Z,118.13
2018-12-09T12:28:19.318Z,118.13
2018-12-09T12:29:19.276Z,118.13
2018-12-09T12:30:19.735Z,118.13
2018-12-09T12:31:19.195Z,118.13
2018-12-09T12:32:19.148Z,118.13
2018-12-09T12:33:19.093Z,118.13
2018-12-09T12:34:19.048Z,118.13
2018-12-09T12:35:19.002Z,118.13
2018-12-09T12:36:18.944Z,118.13
2018-12-09T12:37:18.911Z,118.13
2018-12-09T12:38:18.874Z,118.13
2018-12-09T12:39:18.816Z,118.13
2018-12-09T12:40:18.783Z,118.13
2018-12-09T12:41:18.737Z,118.13
2018-12-09T12:42:18.670Z,118.13
2018-12-09T12:43:18.625Z,118.13
2018-12-09T12:44:18.601Z,118.13
2018-12-09T12:45:18.555Z,118.13
2018-12-09T12:46:18.497Z,118.13
2018-12-09T12:47:18.452Z,118.13
2018-12-09T12:48:18.419Z,118.13
2018-12-09T12:49:18.374Z,118.13
2018-12-09T12:50:18.321Z,112.50
2018-12-09T12:51:18.262Z,112.50
2018-12-09T12:52:18.224Z,112.50
2018-12-09T12:53:18.180Z,112.50
2018-12-09T12:54:18.141Z,112.50
2018-12-09T12:55:18.093Z,112.50
2018-12-09T12:56:18.035Z,112.50
2018-12-09T12:57:17.989Z,112.50
2018-12-09T12:58:17.965Z,112.50
2018-12-09T12:59:17.899Z,112.50
2018-12-09T13:00:17.862Z,112.50